Babson Park, Massachusetts
Current Conditions -  °F | °C
As of 10:53 AM on Thursday 29 Jan 2015 (Local Time) from KOWD Reporting Station
Clear Clear  
Wind Chill: -4°   Ceiling: Unl
Heat Index: -4°   Visibility: 10mi
Dew Point: -17°   Wind: 0mph
Humidity: 38%   Direction: NA
Pressure: 30.31"   Gusts: NA
Location:  42.3°N, 71.26°W
Report Text: KOWD 291553Z 00000KT 10SM CLR M04/M17 A3031 RMK AO2 SLP265 T10441167
Loading
Personal Weather Stations






























Interactive Weather Map New forecast layout! Learn more

10-Day Weather Forecast

Advertisements
Track Severe Weather on mobile